Terminal Aerodrome Forecast
Issued by NWS Grand Forks, ND

Home | Current Version | Previous Version | Graphics & Text | Print | Product List | Glossary On
Versions: 1 2 3 4 5 6 7 8 9 10 11 12 13 14 15 16 17 18 19
000
FTUS43 KFGF 271700
TAFFAR
TAF
KFAR 271737Z 2718/2818 28010KT P6SM BKN120
     FM272100 26008KT P6SM OVC100
     FM280800 30010KT P6SM OVC050
     FM281100 31014KT P6SM OVC015
     FM281500 31021G27KT P6SM OVC025=

USA.gov is the U.S. government's official web portal to all federal, state and local government web resources and services.